Time;durP1;ratioP1;P1;durP2;ratioP2;P2;SDS_P1;SDS_P2;PMS_P1;PMS_P2;Temp;Humidity;BMP_temperature;BMP_pressure;BME280_temperature;BME280_humidity;BME280_pressure;Samples;Min_cycle;Max_cycle;Signal;HPM_P1;HPM_P2
2021/03/24 00:00:29;;;;;;;85.57;36.23;;;;;;;3.36;94.67;102409.47;5087891;28;20207;-71
2021/03/24 00:02:58;;;;;;;81.83;36.47;;;;;;;3.30;94.58;102413.19;5076005;28;20365;-74
2021/03/24 00:05:29;;;;;;;83.13;35.60;;;;;;;3.29;94.58;102411.41;5085470;28;20074;-74
2021/03/24 00:07:54;;;;;;;86.53;39.43;;;;;;;3.23;94.90;102408.38;5089492;28;20029;-74
2021/03/24 00:10:23;;;;;;;87.20;37.60;;;;;;;3.20;95.01;102403.06;5079779;28;20024;-71
2021/03/24 00:12:49;;;;;;;81.80;37.77;;;;;;;3.28;94.80;102409.66;5101186;28;20107;-73
2021/03/24 00:15:14;;;;;;;79.65;35.53;;;;;;;3.26;94.25;102412.06;5076965;28;20159;-74
2021/03/24 00:17:40;;;;;;;81.97;34.08;;;;;;;3.19;94.18;102411.44;5074959;28;20073;-72
2021/03/24 00:20:08;;;;;;;88.68;37.53;;;;;;;3.10;94.02;102407.44;5081242;28;20031;-73
2021/03/24 00:22:34;;;;;;;82.57;36.77;;;;;;;3.02;94.14;102408.47;5082798;28;20031;-74
2021/03/24 00:24:59;;;;;;;74.13;33.58;;;;;;;2.97;93.95;102407.25;5083276;28;20652;-74
2021/03/24 00:27:24;;;;;;;69.57;32.60;;;;;;;2.94;93.80;102403.56;5094936;28;20043;-72
2021/03/24 00:29:50;;;;;;;66.83;31.40;;;;;;;2.96;93.68;102391.88;5089540;28;20388;-73
2021/03/24 00:32:15;;;;;;;75.60;33.80;;;;;;;2.91;93.66;102396.56;5079948;28;20266;-73
2021/03/24 00:34:40;;;;;;;81.18;36.00;;;;;;;3.08;95.06;102398.81;5097280;28;20386;-74
2021/03/24 00:37:06;;;;;;;68.28;32.78;;;;;;;3.04;94.52;102403.53;5098352;28;20476;-73
2021/03/24 00:39:31;;;;;;;73.60;35.25;;;;;;;2.99;94.70;102402.28;5099385;28;20175;-74
2021/03/24 00:41:56;;;;;;;92.80;37.53;;;;;;;3.08;95.27;102397.91;5081399;28;20028;-72
2021/03/24 00:44:23;;;;;;;91.03;38.60;;;;;;;3.20;96.03;102393.78;5096996;28;20282;-74
2021/03/24 00:46:48;;;;;;;;;;;;;;;3.18;95.78;102395.31;5102614;28;20027;-73
2021/03/24 00:49:13;;;;;;;99.07;38.77;;;;;;;3.08;95.47;102393.72;5078191;28;20408;-73
2021/03/24 00:51:38;;;;;;;81.90;36.65;;;;;;;3.06;95.12;102390.19;5096555;28;20030;-74
2021/03/24 00:54:04;;;;;;;72.72;35.33;;;;;;;3.04;94.90;102381.56;5085927;28;20034;-74
2021/03/24 00:56:29;;;;;;;84.55;38.60;;;;;;;3.05;95.74;102382.44;5110527;28;20020;-73
2021/03/24 00:58:54;;;;;;;78.03;36.00;;;;;;;2.97;95.33;102379.31;5096648;28;20056;-73
2021/03/24 01:01:21;;;;;;;86.87;37.97;;;;;;;2.94;95.08;102379.06;5110179;28;20275;-73
2021/03/24 01:03:46;;;;;;;89.13;38.87;;;;;;;2.98;96.01;102368.41;5105431;28;20019;-73
2021/03/24 01:06:11;;;;;;;77.77;37.40;;;;;;;2.99;95.58;102375.25;5076001;28;20047;-73
2021/03/24 01:08:36;;;;;;;80.60;37.20;;;;;;;2.95;95.22;102370.69;5100920;28;20698;-73
2021/03/24 01:11:02;;;;;;;92.93;37.50;;;;;;;3.01;95.38;102371.16;5075010;28;20024;-73
2021/03/24 01:13:28;;;;;;;80.43;35.92;;;;;;;3.03;95.76;102369.63;5108538;28;20084;-74
2021/03/24 01:15:54;;;;;;;87.05;37.45;;;;;;;3.05;95.70;102355.41;5095664;28;20031;-73
2021/03/24 01:18:22;;;;;;;99.38;40.42;;;;;;;3.08;95.91;102358.19;5085437;28;20035;-73
2021/03/24 01:20:48;;;;;;;91.57;39.80;;;;;;;3.07;95.61;102363.13;5097059;28;20024;-73
2021/03/24 01:23:14;;;;;;;90.95;38.80;;;;;;;2.99;95.45;102354.94;5076609;28;20081;-74
2021/03/24 01:25:39;;;;;;;76.50;34.95;;;;;;;2.95;95.04;102349.50;5090707;28;20070;-73
2021/03/24 01:28:16;;;;;;;79.05;35.72;;;;;;;2.87;94.94;102351.41;5090799;28;20080;-71
2021/03/24 01:30:41;;;;;;;77.88;34.42;;;;;;;2.79;94.67;102342.31;5073768;28;20385;-73
2021/03/24 01:33:07;;;;;;;83.18;35.80;;;;;;;2.81;94.66;102350.94;5082783;28;20024;-72
2021/03/24 01:35:32;;;;;;;74.78;34.67;;;;;;;2.76;94.85;102347.16;5110593;28;20062;-74
2021/03/24 01:37:57;;;;;;;76.40;33.65;;;;;;;2.73;95.03;102346.91;5102116;28;20024;-73
2021/03/24 01:40:29;;;;;;;77.38;34.35;;;;;;;2.66;95.63;102347.22;5088124;28;20031;-71
2021/03/24 01:42:58;;;;;;;82.37;36.70;;;;;;;2.63;95.64;102345.31;5072100;28;20031;-74
2021/03/24 01:45:23;;;;;;;76.57;34.77;;;;;;;2.55;95.86;102343.78;5090265;28;20024;-73
2021/03/24 01:47:49;;;;;;;97.40;38.20;;;;;;;2.59;96.29;102340.72;5088393;28;20023;-73
2021/03/24 01:50:17;;;;;;;98.40;39.80;;;;;;;2.67;96.54;102337.19;5110471;28;20031;-74
2021/03/24 01:52:43;;;;;;;88.17;36.20;;;;;;;2.86;96.43;102342.03;5078826;28;20023;-70
2021/03/24 01:55:09;;;;;;;;;;;;;;;2.71;96.24;102343.38;5082259;28;20020;-73
2021/03/24 01:57:37;;;;;;;62.37;28.13;;;;;;;2.59;96.12;102340.72;5104186;28;19912;-73
2021/03/24 02:00:11;;;;;;;85.13;37.00;;;;;;;2.51;95.91;102339.25;5096929;28;20487;-71
2021/03/24 02:02:37;;;;;;;52.83;25.13;;;;;;;2.44;95.58;102339.53;5076935;28;20026;-71
2021/03/24 02:05:03;;;;;;;47.42;23.73;;;;;;;2.36;95.52;102344.00;5083196;28;20106;-73
2021/03/24 02:07:34;;;;;;;55.67;27.63;;;;;;;2.28;95.29;102339.06;5109864;28;20024;-73
2021/03/24 02:10:08;;;;;;;70.97;32.23;;;;;;;2.23;94.96;102341.22;5096175;28;20023;-73
2021/03/24 02:12:36;;;;;;;78.20;36.03;;;;;;;2.18;94.99;102350.97;5109438;28;20435;-74
2021/03/24 02:15:10;;;;;;;64.17;28.07;;;;;;;2.15;94.64;102347.31;5084804;28;20024;-72
2021/03/24 02:17:40;;;;;;;35.33;17.87;;;;;;;2.07;94.13;102346.69;5081488;28;20031;-73
2021/03/24 02:20:09;;;;;;;52.63;25.57;;;;;;;2.04;94.23;102353.16;5090067;28;20035;-71
2021/03/24 02:22:45;;;;;;;77.73;34.23;;;;;;;2.01;94.33;102348.72;5096971;28;20035;-73
2021/03/24 02:25:20;;;;;;;82.05;38.78;;;;;;;2.04;94.60;102353.16;5097928;28;20028;-71
2021/03/24 02:27:51;;;;;;;105.30;41.47;;;;;;;2.11;95.06;102346.19;5071694;28;20027;-72
2021/03/24 02:30:30;;;;;;;111.20;45.93;;;;;;;2.19;95.95;102346.78;5091059;28;20043;-74
2021/03/24 02:33:06;;;;;;;117.87;46.83;;;;;;;2.23;95.83;102345.41;5078000;28;20077;-73
2021/03/24 02:35:41;;;;;;;111.38;44.55;;;;;;;2.50;96.29;102337.47;5090752;28;20024;-73
2021/03/24 02:38:08;;;;;;;128.43;47.63;;;;;;;2.80;97.30;102328.88;5098604;28;20028;-72
2021/03/24 02:40:35;;;;;;;116.07;47.00;;;;;;;2.93;97.77;102333.28;5085311;28;20027;-71
2021/03/24 02:43:02;;;;;;;105.30;42.40;;;;;;;2.75;97.51;102325.09;5108507;28;20027;-73
2021/03/24 02:45:32;;;;;;;91.20;38.63;;;;;;;2.63;97.13;102325.03;5109248;28;20042;-71
2021/03/24 02:48:04;;;;;;;97.37;38.93;;;;;;;2.69;97.27;102324.63;5103297;28;20046;-72
2021/03/24 02:50:30;;;;;;;97.40;39.50;;;;;;;2.68;97.35;102318.66;5088606;28;20118;-72
2021/03/24 02:52:57;;;;;;;99.60;40.00;;;;;;;2.66;97.09;102315.13;5093522;28;20036;-73
2021/03/24 02:55:23;;;;;;;91.80;38.57;;;;;;;2.55;97.43;102305.75;5094522;28;20024;-73
2021/03/24 02:57:49;;;;;;;100.35;39.25;;;;;;;2.65;97.44;102307.38;5105448;28;20392;-71
2021/03/24 03:00:19;;;;;;;89.88;39.22;;;;;;;2.50;97.07;102309.56;5082501;28;20024;-72
2021/03/24 03:02:50;;;;;;;113.87;42.27;;;;;;;2.53;96.97;102311.47;5105878;28;20036;-73
2021/03/24 03:05:20;;;;;;;112.10;46.27;;;;;;;2.51;97.17;102303.75;5101325;28;20032;-73
2021/03/24 03:07:51;;;;;;;115.23;47.57;;;;;;;2.72;97.22;102307.97;5079467;28;20124;-73
2021/03/24 03:10:34;;;;;;;121.23;50.73;;;;;;;2.65;97.38;102308.28;5109713;28;20547;-73
2021/03/24 03:13:07;;;;;;;101.90;42.67;;;;;;;2.46;97.32;102303.38;5086093;28;20057;-73
2021/03/24 03:15:45;;;;;;;143.77;54.40;;;;;;;2.45;97.13;102306.69;5094866;28;20035;-72
2021/03/24 03:18:21;;;;;;;141.30;55.53;;;;;;;2.60;97.70;102309.56;5082126;28;20032;-72
2021/03/24 03:20:53;;;;;;;162.00;57.45;;;;;;;2.70;97.92;102303.56;5075521;28;20718;-72
2021/03/24 03:23:21;;;;;;;148.80;56.87;;;;;;;2.64;97.62;102295.47;5088293;28;20016;-72
2021/03/24 03:25:57;;;;;;;135.87;55.40;;;;;;;2.57;97.48;102288.09;5105404;28;20031;-73
2021/03/24 03:28:24;;;;;;;153.23;58.07;;;;;;;2.49;97.36;102293.47;5080043;28;20031;-74
2021/03/24 03:30:51;;;;;;;146.83;56.43;;;;;;;2.43;97.22;102289.56;5080704;28;20564;-71
2021/03/24 03:33:22;;;;;;;143.77;54.50;;;;;;;2.44;97.46;102286.28;5099410;28;20020;-73
2021/03/24 03:35:47;;;;;;;139.77;55.07;;;;;;;2.42;97.42;102285.25;5081958;28;20027;-73
2021/03/24 03:38:17;;;;;;;149.23;58.53;;;;;;;2.43;97.46;102280.31;5111610;28;20028;-72
2021/03/24 03:40:44;;;;;;;142.63;55.77;;;;;;;2.45;97.38;102288.94;5101597;28;20297;-73
2021/03/24 03:43:14;;;;;;;140.60;57.17;;;;;;;2.48;97.26;102286.63;5111489;28;20016;-73
2021/03/24 03:45:43;;;;;;;155.20;60.20;;;;;;;2.53;97.69;102293.72;5090393;28;20035;-74
2021/03/24 03:48:10;;;;;;;146.87;58.20;;;;;;;2.58;97.64;102293.31;5094430;28;20084;-72
2021/03/24 03:50:35;;;;;;;150.53;58.77;;;;;;;2.57;97.78;102294.06;5077349;28;20077;-73
2021/03/24 03:53:12;;;;;;;132.55;55.95;;;;;;;2.62;97.80;102294.47;5103906;28;20024;-72
2021/03/24 03:56:00;;;;;;;129.50;54.40;;;;;;;2.55;97.68;102292.19;5087372;28;20516;-74
2021/03/24 03:58:53;;;;;;;128.87;54.13;;;;;;;2.51;97.72;102296.13;5098879;28;20081;-73
2021/03/24 04:01:24;;;;;;;113.53;50.23;;;;;;;2.41;97.42;102289.44;5091184;28;20035;-73
2021/03/24 04:04:05;;;;;;;131.93;53.30;;;;;;;2.42;97.45;102286.16;5078626;28;20093;-74
2021/03/24 04:06:36;;;;;;;124.83;52.57;;;;;;;2.38;97.41;102286.69;5105411;28;20039;-73
2021/03/24 04:09:02;;;;;;;109.73;51.17;;;;;;;2.36;97.76;102292.38;5091394;28;20054;-73
2021/03/24 04:11:32;;;;;;;118.97;52.78;;;;;;;2.33;97.45;102287.06;5089097;28;20481;-73
2021/03/24 04:14:02;;;;;;;128.83;54.97;;;;;;;2.33;97.28;102290.50;5100384;28;20030;-74
2021/03/24 04:16:27;;;;;;;131.67;53.00;;;;;;;2.36;97.50;102293.28;5093275;28;20020;-72
2021/03/24 04:19:01;;;;;;;123.15;54.05;;;;;;;2.36;97.39;102287.31;5099112;28;20024;-73
2021/03/24 04:21:30;;;;;;;126.50;54.17;;;;;;;2.36;97.34;102288.19;5081123;28;20110;-73
2021/03/24 04:24:01;;;;;;;127.73;52.57;;;;;;;2.37;97.55;102281.47;5082205;28;20027;-74
2021/03/24 04:26:33;;;;;;;138.50;58.10;;;;;;;2.59;97.50;102291.66;5078702;28;20032;-73
2021/03/24 04:29:05;;;;;;;141.27;57.03;;;;;;;2.52;97.60;102290.28;5092281;28;20126;-74
2021/03/24 04:31:32;;;;;;;123.23;52.40;;;;;;;2.45;97.50;102282.97;5091404;28;20035;-72
2021/03/24 04:33:57;;;;;;;123.93;55.00;;;;;;;2.42;97.61;102283.63;5080518;28;20085;-73
2021/03/24 04:36:37;;;;;;;122.00;52.03;;;;;;;2.40;97.54;102294.41;5087367;28;20110;-74
2021/03/24 04:39:07;;;;;;;135.77;54.80;;;;;;;2.42;97.65;102290.34;5079578;28;20023;-73
2021/03/24 04:41:38;;;;;;;126.57;53.20;;;;;;;2.40;97.42;102290.22;5093803;28;20023;-73
2021/03/24 04:44:16;;;;;;;125.87;55.03;;;;;;;2.39;97.84;102293.50;5097454;28;20044;-73
2021/03/24 04:46:45;;;;;;;126.20;54.73;;;;;;;2.35;97.45;102294.03;5079141;28;20162;-71
2021/03/24 04:49:19;;;;;;;123.90;56.47;;;;;;;2.30;97.35;102290.25;5110883;28;20022;-73
2021/03/24 04:51:46;;;;;;;128.70;53.70;;;;;;;2.24;97.45;102299.88;5083689;28;20382;-74
2021/03/24 04:54:35;;;;;;;114.47;51.50;;;;;;;2.19;97.69;102299.50;5106763;28;20020;-74
2021/03/24 04:57:05;;;;;;;121.63;51.83;;;;;;;2.19;97.68;102298.63;5086199;28;20087;-74
2021/03/24 04:59:35;;;;;;;111.33;51.00;;;;;;;2.11;97.55;102297.13;5093287;28;20515;-72
2021/03/24 05:02:06;;;;;;;115.93;51.17;;;;;;;2.10;97.60;102301.31;5100135;28;20024;-74
2021/03/24 05:04:40;;;;;;;128.93;50.17;;;;;;;2.06;97.58;102301.84;5099647;28;20066;-73
2021/03/24 05:07:20;;;;;;;113.50;49.67;;;;;;;2.04;97.62;102300.84;5072741;28;20024;-74
2021/03/24 05:09:46;;;;;;;118.70;50.70;;;;;;;2.13;97.87;102304.09;5101160;28;20027;-75
2021/03/24 05:12:39;;;;;;;124.15;53.08;;;;;;;2.19;97.88;102301.16;5076490;28;20020;-74
2021/03/24 05:15:22;;;;;;;136.13;55.03;;;;;;;2.19;97.87;102303.69;5098127;28;20028;-72
2021/03/24 05:17:49;;;;;;;121.60;53.73;;;;;;;2.11;97.84;102294.59;5096545;28;20042;-75
2021/03/24 05:20:22;;;;;;;129.20;52.50;;;;;;;2.13;97.86;102305.75;5075499;28;20077;-74
2021/03/24 05:22:49;;;;;;;115.37;51.70;;;;;;;2.10;97.97;102296.25;5076919;28;20085;-73
2021/03/24 05:25:29;;;;;;;111.33;49.30;;;;;;;2.05;97.77;102294.13;5085225;28;20032;-74
2021/03/24 05:27:59;;;;;;;121.90;52.10;;;;;;;2.02;97.78;102304.00;5105665;28;20106;-74
2021/03/24 05:30:29;;;;;;;120.17;54.30;;;;;;;2.02;97.73;102302.34;5084116;28;20031;-73
2021/03/24 05:33:18;;;;;;;122.00;54.33;;;;;;;1.99;97.87;102302.09;5072304;28;20032;-75
2021/03/24 05:35:59;;;;;;;122.87;50.13;;;;;;;1.99;97.79;102298.69;5105748;28;20400;-74
2021/03/24 05:39:18;;;;;;;119.53;52.93;;;;;;;1.96;97.74;102298.44;5091131;28;20024;-75
2021/03/24 05:41:56;;;;;;;128.40;52.07;;;;;;;1.96;97.89;102306.03;4973318;28;20111;-73
2021/03/24 05:44:50;;;;;;;129.50;55.90;;;;;;;1.93;97.87;102305.75;5089945;28;20024;-74
2021/03/24 05:47:35;;;;;;;119.80;53.47;;;;;;;1.95;97.73;102307.69;5100606;28;20039;-75
2021/03/24 05:50:24;;;;;;;134.00;56.43;;;;;;;1.97;97.83;102315.41;5043444;28;20039;-73
2021/03/24 05:52:55;;;;;;;134.17;55.77;;;;;;;2.02;97.97;102311.59;5090018;28;20036;-75
2021/03/24 05:55:42;;;;;;;116.73;50.33;;;;;;;2.09;98.13;102296.13;5071227;28;20089;-74
2021/03/24 05:58:13;;;;;;;119.22;51.63;;;;;;;2.09;97.84;102301.19;5074743;28;20046;-76
2021/03/24 06:00:46;;;;;;;119.00;51.63;;;;;;;2.10;97.85;102302.97;5104679;28;20024;-75
2021/03/24 06:03:27;;;;;;;131.43;56.00;;;;;;;2.19;97.89;102298.63;5084100;28;20015;-74
2021/03/24 06:06:39;;;;;;;129.57;53.37;;;;;;;2.36;97.80;102300.88;5106328;28;20034;-75
2021/03/24 06:09:29;;;;;;;131.77;55.87;;;;;;;2.46;97.85;102298.31;5089790;28;20511;-76
2021/03/24 06:12:16;;;;;;;163.63;59.87;;;;;;;2.75;98.12;102294.63;5086386;28;20027;-74
2021/03/24 06:15:03;;;;;;;151.88;62.05;;;;;;;3.18;98.32;102292.88;5089370;28;20024;-75
2021/03/24 06:17:54;;;;;;;156.65;62.30;;;;;;;3.75;98.51;102291.28;5077373;28;20041;-72
2021/03/24 06:20:41;;;;;;;133.10;59.83;;;;;;;4.18;98.43;102292.78;5101086;28;20488;-72
2021/03/24 06:23:25;;;;;;;124.05;55.60;;;;;;;4.57;98.78;102293.88;5075335;28;20023;-72
2021/03/24 06:26:10;;;;;;;106.70;50.37;;;;;;;4.90;98.57;102296.25;5091238;28;20504;-73
2021/03/24 06:28:53;;;;;;;95.27;48.00;;;;;;;5.23;97.19;102292.59;5081333;28;20028;-74
2021/03/24 06:31:49;;;;;;;96.27;49.17;;;;;;;5.74;90.19;102291.75;5076834;28;20036;-73
2021/03/24 06:34:52;;;;;;;106.63;49.03;;;;;;;6.04;87.41;102294.59;5100448;28;20538;-76
2021/03/24 06:37:45;;;;;;;82.90;44.67;;;;;;;6.46;85.51;102292.25;5106389;28;20560;-75
2021/03/24 06:40:29;;;;;;;83.87;43.57;;;;;;;7.09;83.60;102288.47;5111301;28;20106;-75
2021/03/24 06:43:29;;;;;;;86.87;43.77;;;;;;;7.61;80.27;102294.16;5111408;28;20051;-75
2021/03/24 06:46:15;;;;;;;83.47;42.27;;;;;;;8.17;79.30;102299.13;5093267;28;20031;-76
2021/03/24 06:48:47;;;;;;;77.07;41.53;;;;;;;8.49;78.39;102283.91;5096946;28;20031;-76
2021/03/24 06:51:49;;;;;;;81.17;41.10;;;;;;;8.97;75.06;102279.66;5072718;28;20028;-74
2021/03/24 06:54:46;;;;;;;73.78;39.80;;;;;;;9.30;73.95;102276.28;5090855;28;20028;-74
2021/03/24 06:57:21;;;;;;;74.90;39.90;;;;;;;9.65;73.50;102277.22;5090976;28;20482;-73
2021/03/24 07:00:04;;;;;;;76.78;39.85;;;;;;;10.23;71.63;102272.41;5089594;28;20130;-76
2021/03/24 07:02:29;;;;;;;78.22;40.08;;;;;;;10.70;69.40;102271.16;5071698;28;20092;-74
2021/03/24 07:05:28;;;;;;;70.80;39.83;;;;;;;11.26;68.29;102270.28;5089873;28;20120;-75
2021/03/24 07:08:31;;;;;;;65.97;38.80;;;;;;;11.77;66.43;102263.91;5089619;28;20110;-72
2021/03/24 07:11:34;;;;;;;70.38;38.10;;;;;;;12.36;64.41;102263.78;5070974;28;20500;-74
2021/03/24 07:14:11;;;;;;;73.80;39.05;;;;;;;12.48;61.99;102267.63;5089452;28;20024;-73
2021/03/24 07:16:59;;;;;;;69.80;39.67;;;;;;;12.42;64.60;102271.72;5089632;28;20028;-73
2021/03/24 07:19:51;;;;;;;74.75;41.25;;;;;;;12.87;62.38;102260.50;5098806;28;20524;-74
2021/03/24 07:22:49;;;;;;;74.78;41.25;;;;;;;12.55;59.61;102277.34;5109799;28;20055;-74
2021/03/24 07:25:33;;;;;;;;;;;;;;;13.33;61.50;102265.66;5102969;28;20035;-74
2021/03/24 07:28:30;;;;;;;66.20;37.88;;;;;;;13.86;59.18;102270.06;5109986;28;19960;-74
2021/03/24 07:31:16;;;;;;;69.57;40.58;;;;;;;14.53;58.42;102263.59;5072964;28;20031;-75
2021/03/24 07:34:30;;;;;;;72.22;40.75;;;;;;;14.79;57.07;102257.50;5089642;28;20056;-74
2021/03/24 07:37:25;;;;;;;69.45;42.00;;;;;;;15.20;54.81;102262.94;4987919;28;20489;-74
2021/03/24 07:40:28;;;;;;;65.80;39.50;;;;;;;15.23;52.19;102261.31;4971396;28;20069;-74
2021/03/24 07:43:28;;;;;;;72.07;41.25;;;;;;;15.92;54.88;102264.84;5087710;28;20039;-74
2021/03/24 07:46:05;;;;;;;68.85;40.25;;;;;;;15.78;53.56;102255.03;5089354;28;20515;-73
2021/03/24 07:48:52;;;;;;;70.20;40.63;;;;;;;14.53;55.80;102264.47;5071275;28;20033;-73
2021/03/24 07:51:45;;;;;;;72.20;39.55;;;;;;;14.13;55.86;102256.28;5091277;28;20057;-75
2021/03/24 07:54:24;;;;;;;65.78;39.53;;;;;;;15.20;56.46;102262.94;5109872;28;20031;-75
2021/03/24 07:57:01;;;;;;;64.88;40.45;;;;;;;16.30;52.77;102256.28;5109732;28;20115;-75
2021/03/24 08:00:00;;;;;;;72.57;40.45;;;;;;;17.26;50.38;102260.91;5091408;28;20671;-71
2021/03/24 08:02:31;;;;;;;67.10;40.28;;;;;;;16.72;50.99;102264.16;5109628;28;20019;-73
2021/03/24 08:05:34;;;;;;;70.10;41.03;;;;;;;17.60;48.75;102257.22;5109442;28;20072;-72
2021/03/24 08:08:05;;;;;;;66.82;41.13;;;;;;;17.84;47.87;102256.75;5109632;28;20038;-73
2021/03/24 08:10:45;;;;;;;65.95;40.92;;;;;;;16.30;48.13;102266.66;5092455;28;20047;-73
2021/03/24 08:14:01;;;;;;;74.07;44.15;;;;;;;17.48;46.98;102259.56;5089113;28;20028;-73
2021/03/24 08:17:00;;;;;;;74.53;42.80;;;;;;;17.30;49.04;102259.25;5029072;28;20036;-71
2021/03/24 08:19:35;;;;;;;67.32;42.70;;;;;;;18.17;47.20;102255.53;5101992;28;20035;-74
2021/03/24 08:22:15;;;;;;;68.95;42.03;;;;;;;17.58;45.15;102261.50;5109784;28;20103;-73
2021/03/24 08:24:55;;;;;;;66.07;40.15;;;;;;;17.46;44.83;102258.66;5102718;28;20020;-72
2021/03/24 08:27:34;;;;;;;64.75;39.70;;;;;;;17.81;46.99;102264.50;5086538;28;20028;-73
2021/03/24 08:30:12;;;;;;;69.20;42.47;;;;;;;19.13;44.60;102262.91;5080268;28;20062;-75
2021/03/24 08:32:56;;;;;;;61.33;39.10;;;;;;;19.01;42.25;102262.78;5083955;28;20039;-71
2021/03/24 08:35:49;;;;;;;63.38;41.47;;;;;;;19.69;40.64;102262.66;5081920;28;20028;-73
2021/03/24 08:38:20;;;;;;;70.43;41.50;;;;;;;20.03;42.98;102265.53;5104159;28;20051;-74
2021/03/24 08:41:23;;;;;;;70.95;43.45;;;;;;;20.19;40.43;102259.56;5111870;28;20085;-71
2021/03/24 08:44:00;;;;;;;67.20;39.63;;;;;;;20.20;39.57;102253.47;5077083;28;20668;-73
2021/03/24 08:46:42;;;;;;;60.53;39.20;;;;;;;19.73;43.16;102253.97;5096941;28;20039;-74
2021/03/24 08:49:12;;;;;;;67.18;39.80;;;;;;;20.85;39.37;102249.50;5101497;28;20102;-73
2021/03/24 08:51:52;;;;;;;55.47;37.92;;;;;;;20.18;39.05;102245.66;5090604;28;20027;-73
2021/03/24 08:54:55;;;;;;;63.22;40.95;;;;;;;20.26;41.83;102252.66;5094629;28;20020;-73
2021/03/24 08:57:46;;;;;;;69.47;40.83;;;;;;;20.72;39.34;102252.03;5098121;28;20435;-74
2021/03/24 09:00:37;;;;;;;60.25;38.78;;;;;;;21.59;39.02;102247.06;5100117;28;20019;-73
2021/03/24 09:03:39;;;;;;;62.67;38.95;;;;;;;21.41;37.71;102257.50;5081044;28;20035;-74
2021/03/24 09:06:24;;;;;;;58.22;37.58;;;;;;;22.39;35.60;102242.63;5088850;28;20035;-74
2021/03/24 09:09:09;;;;;;;56.40;35.13;;;;;;;21.95;37.51;102245.31;5106135;28;20047;-73
2021/03/24 09:12:11;;;;;;;52.05;36.10;;;;;;;22.24;36.46;102243.56;5111978;28;20055;-74
2021/03/24 09:14:48;;;;;;;54.60;35.83;;;;;;;22.08;36.12;102252.28;5111398;28;20035;-73
2021/03/24 09:17:37;;;;;;;54.83;37.20;;;;;;;21.97;37.12;102251.41;5074150;28;20024;-73
2021/03/24 09:20:24;;;;;;;55.03;34.80;;;;;;;22.25;36.73;102260.13;5083364;28;20046;-71
2021/03/24 09:23:16;;;;;;;55.67;36.13;;;;;;;20.36;38.85;102252.69;5086018;28;20036;-74
2021/03/24 09:25:46;;;;;;;59.42;37.30;;;;;;;20.59;36.99;102254.59;5023931;28;20047;-73
2021/03/24 09:28:41;;;;;;;57.58;34.92;;;;;;;21.15;37.48;102256.56;5082859;28;20056;-73
2021/03/24 09:31:35;;;;;;;50.83;31.00;;;;;;;21.49;35.83;102255.78;5072982;28;20027;-74
2021/03/24 09:34:26;;;;;;;51.83;33.13;;;;;;;20.99;37.71;102264.34;5095171;28;20404;-73
2021/03/24 09:36:56;;;;;;;53.08;32.25;;;;;;;20.93;36.92;102261.72;5069013;28;20145;-73
2021/03/24 09:39:30;;;;;;;53.58;32.60;;;;;;;20.73;38.54;102265.97;5065212;28;20039;-72
2021/03/24 09:41:55;;;;;;;54.08;32.20;;;;;;;20.00;40.44;102265.50;5086012;28;20551;-73
2021/03/24 09:44:30;;;;;;;48.53;31.10;;;;;;;21.13;38.63;102262.63;5099731;28;20024;-74
2021/03/24 09:46:56;;;;;;;55.13;33.83;;;;;;;21.22;37.68;102256.56;5088625;28;20437;-74
2021/03/24 09:49:33;;;;;;;54.25;34.50;;;;;;;21.72;36.51;102251.41;5096602;28;20589;-74
2021/03/24 09:52:24;;;;;;;56.72;34.78;;;;;;;21.78;36.96;102253.16;5078158;28;20024;-72
2021/03/24 09:55:08;;;;;;;56.17;34.67;;;;;;;20.88;38.87;102254.72;5068507;28;20054;-73
2021/03/24 09:57:39;;;;;;;57.55;34.63;;;;;;;21.31;37.48;102258.34;5072818;28;20035;-73
2021/03/24 10:00:13;;;;;;;52.50;35.40;;;;;;;22.47;35.09;102256.59;5088126;28;20396;-74
2021/03/24 10:02:44;;;;;;;55.50;34.92;;;;;;;22.62;32.60;102260.91;5092697;28;20118;-74
2021/03/24 10:05:14;;;;;;;57.50;35.72;;;;;;;22.96;34.68;102262.53;5088397;28;20024;-73
2021/03/24 10:07:57;;;;;;;52.67;34.15;;;;;;;22.85;34.75;102259.09;5087598;28;20114;-74
2021/03/24 10:10:28;;;;;;;54.50;33.72;;;;;;;22.12;36.61;102256.69;5068356;28;20047;-73
2021/03/24 10:12:57;;;;;;;53.60;34.03;;;;;;;21.46;35.97;102255.75;5070228;28;20545;-74
2021/03/24 10:15:37;;;;;;;48.72;30.95;;;;;;;23.10;34.93;102261.59;5107652;28;20030;-73
2021/03/24 10:18:22;;;;;;;48.92;30.23;;;;;;;22.48;34.26;102253.09;5105483;28;20027;-73
2021/03/24 10:21:07;;;;;;;49.72;32.40;;;;;;;21.65;35.85;102251.44;5075807;28;20091;-73
2021/03/24 10:23:45;;;;;;;51.28;31.40;;;;;;;22.57;35.24;102250.44;5091019;28;20436;-74
2021/03/24 10:26:18;;;;;;;52.65;33.50;;;;;;;23.08;35.08;102250.22;5079300;28;20167;-73
2021/03/24 10:28:55;;;;;;;47.70;31.35;;;;;;;23.39;34.23;102251.78;5068674;28;20032;-72
2021/03/24 10:31:29;;;;;;;51.70;32.28;;;;;;;23.21;33.95;102251.91;5073885;28;20031;-74
2021/03/24 10:34:30;;;;;;;51.70;33.38;;;;;;;22.42;35.90;102247.84;5092107;28;20034;-74
2021/03/24 10:37:00;;;;;;;50.30;32.47;;;;;;;22.46;36.68;102233.03;5097477;28;20110;-73
2021/03/24 10:39:33;;;;;;;50.60;32.70;;;;;;;22.64;34.70;102230.31;5098157;28;20499;-75
2021/03/24 10:42:29;;;;;;;50.55;33.50;;;;;;;20.60;39.20;102230.22;5092951;28;20086;-74
2021/03/24 10:45:20;;;;;;;52.42;32.45;;;;;;;21.91;38.36;102227.88;5068949;28;20126;-73
2021/03/24 10:47:54;;;;;;;58.33;32.00;;;;;;;21.81;35.31;102221.78;5075365;28;20035;-72
2021/03/24 10:50:34;;;;;;;52.83;32.88;;;;;;;21.98;36.84;102217.41;5073684;28;20024;-72
2021/03/24 10:53:15;;;;;;;50.45;31.70;;;;;;;21.97;36.03;102217.41;5096547;28;20035;-74
2021/03/24 10:55:43;;;;;;;53.45;32.30;;;;;;;21.85;36.00;102215.69;5082988;28;22882;-73
2021/03/24 10:58:27;;;;;;;51.05;29.83;;;;;;;22.13;37.07;102224.41;5090392;28;20370;-71
2021/03/24 11:01:08;;;;;;;57.17;31.77;;;;;;;22.29;37.11;102219.97;5094494;28;20081;-73
2021/03/24 11:03:50;;;;;;;50.65;31.95;;;;;;;20.45;37.47;102221.44;5074656;28;20370;-73
2021/03/24 11:06:38;;;;;;;52.40;32.42;;;;;;;22.29;37.81;102215.63;5076978;28;20077;-74
2021/03/24 11:09:07;;;;;;;47.40;31.00;;;;;;;21.96;35.10;102206.06;5073631;28;20046;-73
2021/03/24 11:11:38;;;;;;;48.88;30.42;;;;;;;21.86;36.51;102201.72;5087493;28;20024;-74
2021/03/24 11:14:18;;;;;;;51.55;31.77;;;;;;;22.26;35.62;102206.91;5084502;28;20396;-72
2021/03/24 11:16:59;;;;;;;55.70;33.50;;;;;;;21.82;37.19;102202.59;5096500;28;20031;-73
2021/03/24 11:19:30;;;;;;;45.53;29.67;;;;;;;22.63;35.06;102205.88;5069489;28;20031;-74
2021/03/24 11:22:07;;;;;;;49.88;29.60;;;;;;;22.34;34.07;102194.66;5069688;28;20043;-74
2021/03/24 11:24:51;;;;;;;54.88;31.98;;;;;;;21.54;35.51;102206.97;5067039;28;20039;-73
2021/03/24 11:27:24;;;;;;;53.05;31.58;;;;;;;22.26;34.31;102204.28;5074111;28;20899;-74
2021/03/24 11:30:22;;;;;;;53.20;33.95;;;;;;;21.57;35.73;102206.97;5092837;28;20031;-73
2021/03/24 11:33:12;;;;;;;52.10;31.48;;;;;;;22.00;36.15;102201.69;5094466;28;20586;-75
2021/03/24 11:36:01;;;;;;;49.97;32.95;;;;;;;22.55;35.72;102201.56;5074747;28;20036;-72
2021/03/24 11:38:45;;;;;;;48.17;30.63;;;;;;;22.49;33.26;102198.97;5085279;28;20020;-72
2021/03/24 11:41:13;;;;;;;56.60;33.58;;;;;;;21.00;37.62;102211.22;5085363;28;20035;-72
2021/03/24 11:43:41;;;;;;;51.65;32.00;;;;;;;21.11;38.27;102206.00;5094075;28;20455;-73
2021/03/24 11:46:15;;;;;;;55.72;33.45;;;;;;;20.72;38.28;102205.03;5097666;28;20076;-74
2021/03/24 11:49:14;;;;;;;51.35;31.05;;;;;;;20.07;38.43;102202.06;5105913;28;20106;-73
2021/03/24 11:52:06;;;;;;;52.65;32.10;;;;;;;20.31;40.01;102199.59;5105736;28;20035;-73
2021/03/24 11:54:38;;;;;;;51.45;31.30;;;;;;;18.64;42.55;102202.47;5081008;28;20033;-73
2021/03/24 11:57:24;;;;;;;48.60;31.38;;;;;;;18.29;44.10;102206.31;5088518;28;20028;-73